createdAt,value
2023-09-06T00:01:01.771Z,63291.66
2023-09-06T00:03:30.615Z,63291.66
2023-09-06T00:06:01.586Z,63291.66
2023-09-06T00:08:30.161Z,63291.66
2023-09-06T00:11:02.691Z,63291.66
2023-09-06T00:13:32.689Z,63291.66
2023-09-06T00:16:01.808Z,63291.66
2023-09-06T00:18:30.955Z,63291.66
2023-09-06T00:21:01.301Z,63291.66
2023-09-06T00:23:29.731Z,63291.66
2023-09-06T00:25:58.184Z,63291.66
2023-09-06T00:28:27.007Z,63291.66
2023-09-06T00:30:58.978Z,63291.66
2023-09-06T00:33:30.938Z,63291.66
2023-09-06T00:36:02.560Z,63291.66
2023-09-06T00:38:31.466Z,63291.66
2023-09-06T00:41:00.432Z,63291.66
2023-09-06T00:43:28.873Z,63291.66
2023-09-06T00:45:57.748Z,63291.66
2023-09-06T00:48:28.963Z,63291.66
2023-09-06T00:50:59.611Z,63291.66
2023-09-06T00:53:29.544Z,63291.66
2023-09-06T00:56:00.589Z,63291.66
2023-09-06T00:58:29.524Z,63291.66
2023-09-06T01:00:59.366Z,63291.66
2023-09-06T01:03:28.083Z,63291.66
2023-09-06T01:06:04.412Z,63291.66
2023-09-06T01:08:40.171Z,63291.66
2023-09-06T01:11:20.326Z,63291.66
2023-09-06T01:13:50.570Z,63291.66
2023-09-06T01:16:23.172Z,63291.66
2023-09-06T01:18:51.781Z,63291.66
2023-09-06T01:21:22.019Z,63291.66
2023-09-06T01:23:53.551Z,63291.66
2023-09-06T01:26:22.341Z,63291.66
2023-09-06T01:28:51.964Z,63291.66
2023-09-06T01:31:21.147Z,63291.66
2023-09-06T01:33:49.708Z,63291.66
2023-09-06T01:36:18.243Z,63291.66
2023-09-06T01:38:46.749Z,63291.66
2023-09-06T01:41:16.631Z,63291.66
2023-09-06T01:43:45.505Z,63291.66
2023-09-06T01:46:14.108Z,63291.66
2023-09-06T01:48:43.142Z,63291.66
2023-09-06T01:51:11.542Z,63291.66
2023-09-06T01:53:40.012Z,63291.66
2023-09-06T01:56:08.584Z,63291.66
2023-09-06T01:58:38.855Z,63291.66
2023-09-06T02:01:11.360Z,63291.66
2023-09-06T02:03:40.031Z,63291.66
2023-09-06T02:06:08.572Z,63291.66
2023-09-06T02:08:37.099Z,63291.66
2023-09-06T02:11:05.549Z,63291.66
2023-09-06T02:13:34.046Z,63291.66
2023-09-06T02:16:04.100Z,63291.66
2023-09-06T02:18:32.632Z,63291.66
2023-09-06T02:21:03.350Z,63291.66
2023-09-06T02:23:31.873Z,63291.66
2023-09-06T02:26:00.354Z,63291.66
2023-09-06T02:28:30.130Z,63291.66
2023-09-06T02:30:58.791Z,63291.66
2023-09-06T02:33:29.667Z,63291.66
2023-09-06T02:35:58.901Z,63291.66
2023-09-06T02:38:27.808Z,63291.66
2023-09-06T02:40:56.886Z,63291.66
2023-09-06T02:43:25.507Z,63291.66
2023-09-06T02:45:55.327Z,63291.66
2023-09-06T02:48:23.821Z,63291.66
2023-09-06T02:50:54.088Z,63291.66
2023-09-06T02:53:23.023Z,63291.66
2023-09-06T02:55:53.664Z,63291.66
2023-09-06T02:58:26.587Z,63291.66
2023-09-06T03:00:59.712Z,63291.66
2023-09-06T03:03:29.812Z,63291.66
2023-09-06T03:06:05.499Z,63291.66
2023-09-06T03:08:34.389Z,63291.66
2023-09-06T03:11:03.654Z,63291.66
2023-09-06T03:13:32.100Z,63291.66
2023-09-06T03:16:01.329Z,63291.66
2023-09-06T03:18:31.038Z,63291.66
2023-09-06T03:21:06.438Z,63291.66
2023-09-06T03:23:35.131Z,63291.66
2023-09-06T03:26:03.548Z,63291.66
2023-09-06T03:28:32.121Z,63291.66
2023-09-06T03:31:01.130Z,63291.66
2023-09-06T03:33:29.935Z,63291.66
2023-09-06T03:35:58.781Z,63291.66
2023-09-06T03:38:30.030Z,63291.66
2023-09-06T03:41:04.038Z,63291.66
2023-09-06T03:43:34.312Z,63291.66
2023-09-06T03:46:06.488Z,100920.03
2023-09-06T03:48:35.578Z,100917.00
2023-09-06T03:51:05.875Z,100924.63
2023-09-06T03:53:39.132Z,100918.75
2023-09-06T03:56:07.995Z,100920.06
2023-09-06T03:58:37.378Z,100917.53
2023-09-06T04:01:06.501Z,100913.38
2023-09-06T04:03:35.947Z,100908.84
2023-09-06T04:06:05.489Z,100911.00
2023-09-06T04:08:37.983Z,100902.66
2023-09-06T04:11:06.663Z,100920.28
2023-09-06T04:13:37.179Z,100905.75
2023-09-06T04:16:07.320Z,100913.06
2023-09-06T04:18:36.984Z,100911.69
2023-09-06T04:21:09.935Z,100921.53
2023-09-06T04:23:40.821Z,100906.84
2023-09-06T04:26:09.412Z,100914.81
2023-09-06T04:28:37.978Z,100918.47
2023-09-06T04:31:07.148Z,100915.97
2023-09-06T04:33:35.697Z,100926.88
2023-09-06T04:36:05.382Z,100930.38
2023-09-06T04:38:34.343Z,100928.84
2023-09-06T04:41:04.686Z,100926.06
2023-09-06T04:43:33.393Z,100921.03
2023-09-06T04:46:01.881Z,100918.38
2023-09-06T04:48:31.468Z,100918.81
2023-09-06T04:51:00.896Z,100928.34
2023-09-06T04:53:29.445Z,100928.34
2023-09-06T04:55:58.056Z,100930.31
2023-09-06T04:58:28.287Z,100935.34
2023-09-06T05:00:56.992Z,100941.66
2023-09-06T05:03:25.860Z,100935.34
2023-09-06T05:05:54.471Z,100950.16
2023-09-06T05:08:23.781Z,100945.69
2023-09-06T05:10:53.543Z,100949.03
2023-09-06T05:13:22.183Z,100952.38
2023-09-06T05:15:52.605Z,100951.25
2023-09-06T05:18:21.326Z,100952.78
2023-09-06T05:20:50.059Z,100949.28
2023-09-06T05:23:18.804Z,100954.84
2023-09-06T05:25:47.777Z,100942.44
2023-09-06T05:28:17.579Z,100954.22
2023-09-06T05:30:47.590Z,100950.84
2023-09-06T05:33:17.624Z,100944.75
2023-09-06T05:35:46.633Z,100949.22
2023-09-06T05:38:15.090Z,100944.16
2023-09-06T05:40:44.861Z,100954.44
2023-09-06T05:43:13.474Z,100944.72
2023-09-06T05:45:41.950Z,100949.03
2023-09-06T05:48:12.469Z,100943.97
2023-09-06T05:50:42.743Z,100952.16
2023-09-06T05:53:11.243Z,100956.66
2023-09-06T05:55:39.890Z,100955.78
2023-09-06T05:58:08.384Z,100952.97
2023-09-06T06:00:37.701Z,100952.69
2023-09-06T06:03:06.538Z,100958.47
2023-09-06T06:05:35.303Z,100961.53
2023-09-06T06:08:05.612Z,100959.69
2023-09-06T06:10:36.399Z,100964.09
2023-09-06T06:13:06.255Z,100969.59
2023-09-06T06:15:36.166Z,100965.97
2023-09-06T06:18:06.649Z,100962.16
2023-09-06T06:20:43.940Z,100966.84
2023-09-06T06:23:14.792Z,100964.22
2023-09-06T06:25:43.360Z,100960.56
2023-09-06T06:28:11.984Z,100968.63
2023-09-06T06:30:41.472Z,100960.97
2023-09-06T06:33:10.660Z,100963.97
2023-09-06T06:35:39.732Z,100952.66
2023-09-06T06:38:09.339Z,100964.34
2023-09-06T06:40:39.596Z,100958.56
2023-09-06T06:43:08.183Z,100958.72
2023-09-06T06:45:36.687Z,100960.41
2023-09-06T06:48:06.447Z,100956.38
2023-09-06T06:50:35.163Z,100957.03
2023-09-06T06:53:03.661Z,100957.88
2023-09-06T06:55:32.283Z,100961.03
2023-09-06T06:58:02.111Z,100953.03
2023-09-06T07:00:35.745Z,100956.31
2023-09-06T07:03:04.587Z,100957.97
2023-09-06T07:05:33.841Z,100960.28
2023-09-06T07:08:03.671Z,100958.06
2023-09-06T07:10:33.364Z,100965.91
2023-09-06T07:13:04.373Z,100959.44
2023-09-06T07:15:32.974Z,100959.22
2023-09-06T07:18:06.100Z,100959.25
2023-09-06T07:20:34.689Z,100962.94
2023-09-06T07:23:03.283Z,100972.44
2023-09-06T07:25:33.109Z,100964.72
2023-09-06T07:28:04.089Z,100970.25
2023-09-06T07:30:32.697Z,100970.53
2023-09-06T07:33:01.205Z,100957.56
2023-09-06T07:35:31.273Z,100969.06
2023-09-06T07:38:02.371Z,100966.25
2023-09-06T07:40:30.926Z,100959.00
2023-09-06T07:42:59.458Z,100954.81
2023-09-06T07:45:29.351Z,100961.00
2023-09-06T07:47:58.024Z,100961.81
2023-09-06T07:50:26.644Z,100947.84
2023-09-06T07:52:55.246Z,100953.25
2023-09-06T07:55:24.322Z,100947.72
2023-09-06T07:57:53.082Z,100958.50
2023-09-06T08:00:22.626Z,100952.66
2023-09-06T08:02:53.347Z,100946.31
2023-09-06T08:05:22.032Z,100954.53
2023-09-06T08:07:50.516Z,100955.47
2023-09-06T08:10:19.628Z,100966.06
2023-09-06T08:12:48.346Z,100961.78
2023-09-06T08:15:16.866Z,100966.84
2023-09-06T08:17:48.744Z,100961.56
2023-09-06T08:20:19.471Z,100960.31
2023-09-06T08:22:48.192Z,100962.81
2023-09-06T08:25:18.663Z,100958.28
2023-09-06T08:27:47.433Z,100962.47
2023-09-06T08:30:18.004Z,100964.81
2023-09-06T08:32:49.584Z,100975.22
2023-09-06T08:35:20.172Z,100972.56
2023-09-06T08:37:48.616Z,100970.50
2023-09-06T08:40:17.720Z,100981.34
2023-09-06T08:42:47.665Z,100975.56
2023-09-06T08:45:21.012Z,100982.66
2023-09-06T08:47:50.305Z,100983.06
2023-09-06T08:50:21.514Z,100988.25
2023-09-06T08:52:52.971Z,100988.25
2023-09-06T08:55:21.580Z,100982.88
2023-09-06T08:57:50.798Z,100972.06
2023-09-06T09:00:21.544Z,100983.91
2023-09-06T09:02:50.118Z,100985.97
2023-09-06T09:05:22.898Z,100978.69
2023-09-06T09:07:58.734Z,100985.91
2023-09-06T09:10:30.388Z,100976.09
2023-09-06T09:12:59.984Z,100986.31
2023-09-06T09:15:29.030Z,100984.66
2023-09-06T09:18:01.636Z,100983.38
2023-09-06T09:20:33.972Z,100986.22
2023-09-06T09:23:04.212Z,100992.00
2023-09-06T09:25:35.188Z,100992.59
2023-09-06T09:28:04.061Z,100987.53
2023-09-06T09:30:34.505Z,100985.22
2023-09-06T09:33:05.769Z,100991.81
2023-09-06T09:35:36.896Z,101000.31
2023-09-06T09:38:07.845Z,100995.25
2023-09-06T09:43:07.740Z,100999.38
2023-09-06T09:45:45.189Z,101004.94
2023-09-06T09:48:14.153Z,101006.56
2023-09-06T09:50:45.506Z,101001.53
2023-09-06T09:53:21.675Z,101004.97
2023-09-06T09:56:08.681Z,101004.50
2023-09-06T09:58:38.619Z,101000.72
2023-09-06T10:01:10.210Z,100997.09
2023-09-06T10:03:44.031Z,100995.66
2023-09-06T10:06:14.823Z,100998.63
2023-09-06T10:08:48.118Z,101000.22
2023-09-06T10:11:20.928Z,100996.16
2023-09-06T10:13:50.845Z,100996.22
2023-09-06T10:16:20.447Z,100990.75
2023-09-06T10:18:49.518Z,101000.88
2023-09-06T10:21:21.459Z,100999.66
2023-09-06T10:23:50.248Z,100989.91
2023-09-06T10:26:28.154Z,101000.22
2023-09-06T10:28:59.891Z,100988.97
2023-09-06T10:31:38.472Z,100997.94
2023-09-06T10:34:09.160Z,100989.69
2023-09-06T10:36:53.945Z,101006.38
2023-09-06T10:39:23.847Z,101001.88
2023-09-06T10:42:17.375Z,100996.13
2023-09-06T10:45:13.736Z,100999.59
2023-09-06T10:47:42.733Z,101004.72
2023-09-06T10:50:22.428Z,101004.59
2023-09-06T10:53:00.060Z,101009.31
2023-09-06T10:55:31.125Z,101002.81
2023-09-06T10:58:09.606Z,100994.38
2023-09-06T11:00:38.066Z,100988.44
2023-09-06T11:03:23.479Z,100983.31
2023-09-06T11:05:56.632Z,100985.88
2023-09-06T11:08:34.376Z,100984.72
2023-09-06T11:11:09.269Z,100991.59
2023-09-06T11:13:38.923Z,100987.06
2023-09-06T11:16:12.856Z,100992.94
2023-09-06T11:18:49.088Z,100985.63
2023-09-06T11:21:19.692Z,100971.34
2023-09-06T11:23:51.647Z,100989.63
2023-09-06T11:26:20.687Z,100983.31
2023-09-06T11:28:50.487Z,100981.91
2023-09-06T11:31:23.789Z,100983.38
2023-09-06T11:33:57.771Z,100985.06
2023-09-06T11:36:31.985Z,100974.34
2023-09-06T11:39:12.975Z,100977.22
2023-09-06T11:41:42.975Z,100968.00
2023-09-06T11:44:14.533Z,100965.50
2023-09-06T11:46:45.292Z,100966.53
2023-09-06T11:49:16.150Z,100969.47
2023-09-06T11:51:47.612Z,100964.53
2023-09-06T11:54:19.140Z,100961.63
2023-09-06T11:56:49.580Z,100966.88
2023-09-06T11:59:21.737Z,100968.16
2023-09-06T12:01:54.269Z,100965.72
2023-09-06T12:04:23.940Z,100958.16
2023-09-06T12:06:53.976Z,100958.50
2023-09-06T12:09:25.200Z,100963.03
2023-09-06T12:11:53.684Z,100962.91
2023-09-06T12:14:22.419Z,100962.03
2023-09-06T12:16:51.058Z,100969.78
2023-09-06T12:19:23.007Z,100964.88
2023-09-06T12:21:51.807Z,100961.66
2023-09-06T12:24:20.288Z,100968.38
2023-09-06T12:26:50.345Z,100958.53
2023-09-06T12:29:19.143Z,100956.25
2023-09-06T12:31:47.888Z,100961.28
2023-09-06T12:34:16.431Z,100950.72
2023-09-06T12:36:45.010Z,100953.47
2023-09-06T12:39:13.580Z,100950.00
2023-09-06T12:41:42.188Z,100946.16
2023-09-06T12:44:12.228Z,100936.38
2023-09-06T12:46:40.664Z,100941.13
2023-09-06T12:49:09.663Z,100931.63
2023-09-06T12:51:38.786Z,100930.63
2023-09-06T12:54:08.995Z,100930.13
2023-09-06T12:56:39.718Z,100933.47
2023-09-06T12:59:08.754Z,100930.50
2023-09-06T13:01:39.604Z,100926.44
2023-09-06T13:04:09.560Z,100934.66
2023-09-06T13:06:39.972Z,100924.81
2023-09-06T13:09:08.979Z,100920.44
2023-09-06T13:11:37.437Z,100920.88
2023-09-06T13:14:06.222Z,100901.19
2023-09-06T13:16:34.882Z,100918.78
2023-09-06T13:19:04.965Z,100916.59
2023-09-06T13:21:35.996Z,100920.69
2023-09-06T13:24:04.986Z,100910.53
2023-09-06T13:26:38.694Z,100909.41
2023-09-06T13:29:08.324Z,100904.47
2023-09-06T13:31:37.006Z,100911.00
2023-09-06T13:34:07.198Z,100904.38
2023-09-06T13:36:37.617Z,100902.72
2023-09-06T13:39:06.943Z,100899.94
2023-09-06T13:41:35.450Z,100900.34
2023-09-06T13:44:04.110Z,100889.06
2023-09-06T13:46:32.805Z,100894.56
2023-09-06T13:49:07.852Z,100893.19
2023-09-06T13:51:37.869Z,100880.75
2023-09-06T13:54:07.712Z,100887.31
2023-09-06T13:56:36.246Z,100887.25
2023-09-06T13:59:05.497Z,100890.19
2023-09-06T14:01:33.963Z,100891.31
2023-09-06T14:04:02.705Z,100888.81
2023-09-06T14:06:32.771Z,100882.41
2023-09-06T14:09:03.334Z,100875.75
2023-09-06T14:11:31.756Z,100875.19
2023-09-06T14:14:00.282Z,100885.59
2023-09-06T14:16:28.924Z,100877.16
2023-09-06T14:18:57.408Z,100876.78
2023-09-06T14:21:27.496Z,100878.38
2023-09-06T14:23:57.043Z,100872.13
2023-09-06T14:26:29.395Z,100874.97
2023-09-06T14:28:58.848Z,100882.00
2023-09-06T14:31:28.904Z,100873.72
2023-09-06T14:34:00.570Z,100876.94
2023-09-06T14:36:30.927Z,100876.31
2023-09-06T14:38:59.886Z,100877.38
2023-09-06T14:41:30.797Z,100872.41
2023-09-06T14:43:59.327Z,100872.47
2023-09-06T14:46:27.938Z,100866.91
2023-09-06T14:48:56.637Z,100865.81
2023-09-06T14:51:25.774Z,100869.91
2023-09-06T14:53:54.625Z,100869.06
2023-09-06T14:56:29.219Z,100870.75
2023-09-06T14:58:59.596Z,100869.94
2023-09-06T15:01:28.396Z,100863.91
2023-09-06T15:03:56.956Z,100873.47
2023-09-06T15:06:25.500Z,100868.84
2023-09-06T15:08:57.747Z,100869.09
2023-09-06T15:11:26.787Z,100858.88
2023-09-06T15:13:55.343Z,100868.25
2023-09-06T15:16:25.262Z,100858.13
2023-09-06T15:18:53.976Z,100859.22
2023-09-06T15:21:22.639Z,100858.97
2023-09-06T15:23:51.362Z,100862.25
2023-09-06T15:26:21.532Z,100851.00
2023-09-06T15:28:50.029Z,100855.94
2023-09-06T15:31:21.405Z,100869.41
2023-09-06T15:33:51.450Z,100863.59
2023-09-06T15:36:19.990Z,100858.81
2023-09-06T15:38:48.501Z,100858.22
2023-09-06T15:41:18.856Z,100859.34
2023-09-06T15:43:48.057Z,100863.22
2023-09-06T15:46:16.843Z,100863.00
2023-09-06T15:48:45.541Z,100859.06
2023-09-06T15:51:15.523Z,100857.13
2023-09-06T15:53:44.133Z,100854.94
2023-09-06T15:56:12.945Z,100855.78
2023-09-06T15:58:41.560Z,100859.25
2023-09-06T16:01:10.209Z,100856.41
2023-09-06T16:03:38.850Z,100854.19
2023-09-06T16:06:07.893Z,100863.00
2023-09-06T16:08:38.273Z,100864.69
2023-09-06T16:11:06.801Z,100860.84
2023-09-06T16:13:35.658Z,100861.69
2023-09-06T16:16:04.451Z,100870.16
2023-09-06T16:18:33.728Z,100872.34
2023-09-06T16:21:02.492Z,100866.03
2023-09-06T16:23:30.978Z,100858.63
2023-09-06T16:26:01.002Z,100864.13
2023-09-06T16:28:30.301Z,100872.34
2023-09-06T16:30:59.255Z,100862.47
2023-09-06T16:33:28.147Z,100866.28
2023-09-06T16:35:57.146Z,100861.34
2023-09-06T16:38:25.604Z,100861.88
2023-09-06T16:40:55.298Z,100877.47
2023-09-06T16:43:25.343Z,100877.47
2023-09-06T16:45:54.440Z,100865.41
2023-09-06T16:48:23.481Z,100876.06
2023-09-06T16:50:52.126Z,100868.34
2023-09-06T16:53:20.677Z,100875.06
2023-09-06T16:55:49.586Z,100870.13
2023-09-06T16:58:18.158Z,100867.91
2023-09-06T17:00:48.750Z,100870.91
2023-09-06T17:03:17.763Z,100870.31
2023-09-06T17:05:47.916Z,100864.25
2023-09-06T17:08:19.184Z,100863.66
2023-09-06T17:10:48.415Z,100871.84
2023-09-06T17:13:17.555Z,100874.78
2023-09-06T17:15:47.541Z,100874.69
2023-09-06T17:18:16.049Z,100870.69
2023-09-06T17:20:44.509Z,100867.56
2023-09-06T17:23:12.905Z,100864.97
2023-09-06T17:25:41.410Z,100870.09
2023-09-06T17:28:10.209Z,100868.06
2023-09-06T17:30:39.365Z,100874.66
2023-09-06T17:33:15.929Z,100868.53
2023-09-06T17:35:46.241Z,100879.47
2023-09-06T17:38:16.146Z,100881.81
2023-09-06T17:40:46.461Z,100878.09
2023-09-06T17:43:16.029Z,100888.97
2023-09-06T17:45:46.815Z,100888.13
2023-09-06T17:48:19.602Z,100887.97
2023-09-06T17:50:51.166Z,100887.78
2023-09-06T17:53:21.570Z,100887.34
2023-09-06T17:55:51.902Z,100877.00
2023-09-06T17:58:21.356Z,100883.91
2023-09-06T18:00:50.768Z,100893.19
2023-09-06T18:03:20.973Z,100893.13
2023-09-06T18:05:56.679Z,100885.44
2023-09-06T18:08:26.902Z,100895.31
2023-09-06T18:10:55.428Z,100894.59
2023-09-06T18:13:24.008Z,100888.00
2023-09-06T18:15:54.908Z,100893.44
2023-09-06T18:18:25.014Z,100895.69
2023-09-06T18:20:56.626Z,100901.09
2023-09-06T18:23:25.140Z,100899.69
2023-09-06T18:25:57.869Z,100900.25
2023-09-06T18:28:26.451Z,100894.13
2023-09-06T18:30:55.574Z,100886.31
2023-09-06T18:33:26.602Z,100902.84
2023-09-06T18:35:56.757Z,100901.00
2023-09-06T18:38:26.325Z,100898.34
2023-09-06T18:40:57.091Z,100889.19
2023-09-06T18:43:26.247Z,100890.81
2023-09-06T18:45:54.696Z,100891.41
2023-09-06T18:48:25.221Z,100891.47
2023-09-06T18:50:53.902Z,100895.09
2023-09-06T18:53:22.847Z,100894.22
2023-09-06T18:55:51.688Z,100893.06
2023-09-06T18:58:20.513Z,100896.94
2023-09-06T19:00:49.163Z,100894.97
2023-09-06T19:03:19.582Z,100895.44
2023-09-06T19:05:49.897Z,100906.41
2023-09-06T19:08:18.353Z,100899.03
2023-09-06T19:10:47.738Z,100899.53
2023-09-06T19:13:16.313Z,100895.47
2023-09-06T19:15:49.243Z,100895.94
2023-09-06T19:18:18.325Z,100897.69
2023-09-06T19:20:46.817Z,100904.84
2023-09-06T19:23:22.107Z,100895.34
2023-09-06T19:25:56.368Z,100902.50
2023-09-06T19:28:26.176Z,100895.69
2023-09-06T19:30:57.972Z,100895.94
2023-09-06T19:33:27.498Z,100899.31
2023-09-06T19:35:57.046Z,100902.47
2023-09-06T19:38:28.062Z,100901.22
2023-09-06T19:40:56.668Z,100889.63
2023-09-06T19:43:25.915Z,100902.13
2023-09-06T19:45:58.266Z,100898.44
2023-09-06T19:48:27.329Z,100904.66
2023-09-06T19:50:55.951Z,100906.06
2023-09-06T19:53:24.733Z,100900.66
2023-09-06T19:55:54.745Z,100904.16
2023-09-06T19:58:23.144Z,100914.31
2023-09-06T20:00:51.618Z,100911.44
2023-09-06T20:03:20.236Z,100912.75
2023-09-06T20:05:50.504Z,100913.22
2023-09-06T20:08:19.444Z,100921.97
2023-09-06T20:10:49.822Z,100921.56
2023-09-06T20:13:21.734Z,100928.63
2023-09-06T20:15:50.808Z,100929.47
2023-09-06T20:18:19.316Z,100927.41
2023-09-06T20:20:49.044Z,100931.53
2023-09-06T20:23:17.728Z,100932.78
2023-09-06T20:25:46.432Z,100927.16
2023-09-06T20:28:14.866Z,100940.19
2023-09-06T20:30:44.634Z,100939.13
2023-09-06T20:33:13.667Z,100934.69
2023-09-06T20:35:45.114Z,100939.00
2023-09-06T20:38:14.141Z,100944.59
2023-09-06T20:40:42.991Z,100927.13
2023-09-06T20:43:11.501Z,100931.59
2023-09-06T20:45:40.058Z,100931.75
2023-09-06T20:48:12.916Z,100938.34
2023-09-06T20:50:41.694Z,100933.34
2023-09-06T20:53:10.950Z,100930.75
2023-09-06T20:55:40.107Z,100935.50
2023-09-06T20:58:08.579Z,100941.84
2023-09-06T21:00:37.118Z,100939.13
2023-09-06T21:03:06.530Z,100936.75
2023-09-06T21:05:36.520Z,100934.56
2023-09-06T21:08:06.141Z,100929.31
2023-09-06T21:10:35.144Z,100940.03
2023-09-06T21:13:04.948Z,100931.50
2023-09-06T21:15:33.629Z,100937.09
2023-09-06T21:18:02.201Z,100946.13
2023-09-06T21:20:30.779Z,100944.84
2023-09-06T21:23:00.625Z,100941.53
2023-09-06T21:25:29.114Z,100948.53
2023-09-06T21:27:57.590Z,100945.53
2023-09-06T21:30:26.193Z,100947.97
2023-09-06T21:32:54.634Z,100950.41
2023-09-06T21:35:23.165Z,100947.84
2023-09-06T21:37:51.673Z,100952.94
2023-09-06T21:40:21.671Z,100950.00
2023-09-06T21:42:55.109Z,100957.41
2023-09-06T21:45:31.566Z,100953.44
2023-09-06T21:48:00.085Z,100960.41
2023-09-06T21:50:28.743Z,100962.34
2023-09-06T21:52:57.215Z,100958.56
2023-09-06T21:55:27.040Z,100952.56
2023-09-06T21:58:03.272Z,100956.00
2023-09-06T22:00:37.133Z,100954.22
2023-09-06T22:03:06.585Z,100957.94
2023-09-06T22:05:35.896Z,100959.31
2023-09-06T22:08:04.492Z,100962.38
2023-09-06T22:10:34.748Z,100958.56
2023-09-06T22:13:04.080Z,100958.66
2023-09-06T22:15:32.622Z,100964.25
2023-09-06T22:18:01.151Z,100963.50
2023-09-06T22:20:32.993Z,100968.03
2023-09-06T22:23:01.749Z,100980.16
2023-09-06T22:25:30.571Z,100985.44
2023-09-06T22:28:05.846Z,100981.44
2023-09-06T22:30:34.541Z,100980.34
2023-09-06T22:33:03.080Z,100983.53
2023-09-06T22:35:31.554Z,100985.09
2023-09-06T22:38:00.030Z,100980.91
2023-09-06T22:40:28.665Z,100984.16
2023-09-06T22:42:57.236Z,100973.22
2023-09-06T22:45:27.139Z,63291.66
2023-09-06T22:47:55.664Z,63291.66
2023-09-06T22:50:24.433Z,63291.66
2023-09-06T22:52:52.897Z,63291.66
2023-09-06T22:55:21.381Z,63291.66
2023-09-06T22:57:49.879Z,63291.66
2023-09-06T23:00:18.558Z,63291.66
2023-09-06T23:02:48.521Z,63291.66
2023-09-06T23:05:17.020Z,63291.66
2023-09-06T23:07:45.784Z,63291.66
2023-09-06T23:10:16.158Z,63291.66
2023-09-06T23:12:44.993Z,63291.66
2023-09-06T23:15:13.561Z,63291.66
2023-09-06T23:17:44.762Z,63291.66
2023-09-06T23:20:20.940Z,63291.66
2023-09-06T23:22:54.141Z,63291.66
2023-09-06T23:25:23.278Z,63291.66
2023-09-06T23:27:54.206Z,63291.66
2023-09-06T23:30:23.266Z,63291.66
2023-09-06T23:33:01.821Z,63291.66
2023-09-06T23:35:31.691Z,63291.66
2023-09-06T23:38:07.528Z,63291.66
2023-09-06T23:40:36.234Z,63291.66
2023-09-06T23:43:09.261Z,63291.66
2023-09-06T23:45:46.845Z,63291.66
2023-09-06T23:48:15.979Z,63291.66
2023-09-06T23:50:46.929Z,63291.66
2023-09-06T23:53:15.494Z,63291.66
2023-09-06T23:55:43.951Z,63291.66
2023-09-06T23:58:12.564Z,63291.66
